sensor_id;sensor_type;location;lat;lon;timestamp;temperature;humidity
43651;DHT22;29247;50.944;5.382;2023-07-31T00:01:06;18.70;94.30
43651;DHT22;29247;50.944;5.382;2023-07-31T00:03:32;18.70;94.40
43651;DHT22;29247;50.944;5.382;2023-07-31T00:05:57;18.70;94.40
43651;DHT22;29247;50.944;5.382;2023-07-31T00:08:23;18.80;94.40
43651;DHT22;29247;50.944;5.382;2023-07-31T00:10:51;18.70;94.30
43651;DHT22;29247;50.944;5.382;2023-07-31T00:13:20;18.70;94.20
43651;DHT22;29247;50.944;5.382;2023-07-31T00:15:50;18.70;94.20
43651;DHT22;29247;50.944;5.382;2023-07-31T00:18:18;18.70;94.20
43651;DHT22;29247;50.944;5.382;2023-07-31T00:20:46;18.70;94.10
43651;DHT22;29247;50.944;5.382;2023-07-31T00:23:14;18.70;94.00
43651;DHT22;29247;50.944;5.382;2023-07-31T00:25:42;18.70;94.10
43651;DHT22;29247;50.944;5.382;2023-07-31T00:28:07;18.60;94.20
43651;DHT22;29247;50.944;5.382;2023-07-31T00:30:35;18.60;94.20
43651;DHT22;29247;50.944;5.382;2023-07-31T00:33:01;18.60;94.30
43651;DHT22;29247;50.944;5.382;2023-07-31T00:35:29;18.60;94.20
43651;DHT22;29247;50.944;5.382;2023-07-31T00:37:55;18.60;94.30
43651;DHT22;29247;50.944;5.382;2023-07-31T00:40:21;18.60;94.30
43651;DHT22;29247;50.944;5.382;2023-07-31T00:42:47;18.60;94.30
43651;DHT22;29247;50.944;5.382;2023-07-31T00:45:12;18.60;94.30
43651;DHT22;29247;50.944;5.382;2023-07-31T00:47:40;18.60;94.30
43651;DHT22;29247;50.944;5.382;2023-07-31T00:50:07;18.60;94.30
43651;DHT22;29247;50.944;5.382;2023-07-31T00:52:33;18.60;94.30
43651;DHT22;29247;50.944;5.382;2023-07-31T00:54:59;18.60;94.30
43651;DHT22;29247;50.944;5.382;2023-07-31T00:57:25;18.60;94.30
43651;DHT22;29247;50.944;5.382;2023-07-31T00:59:51;18.60;94.30
43651;DHT22;29247;50.944;5.382;2023-07-31T01:02:16;18.60;94.30
43651;DHT22;29247;50.944;5.382;2023-07-31T01:04:43;18.60;94.30
43651;DHT22;29247;50.944;5.382;2023-07-31T01:07:25;18.60;94.30
43651;DHT22;29247;50.944;5.382;2023-07-31T01:10:16;18.60;94.30
43651;DHT22;29247;50.944;5.382;2023-07-31T01:12:45;18.60;94.30
43651;DHT22;29247;50.944;5.382;2023-07-31T01:15:13;18.60;94.30
43651;DHT22;29247;50.944;5.382;2023-07-31T01:17:44;18.70;94.30
43651;DHT22;29247;50.944;5.382;2023-07-31T01:20:26;18.70;94.40
43651;DHT22;29247;50.944;5.382;2023-07-31T01:28:19;18.70;94.50
43651;DHT22;29247;50.944;5.382;2023-07-31T01:30:48;18.70;94.40
43651;DHT22;29247;50.944;5.382;2023-07-31T01:33:17;18.70;94.40
43651;DHT22;29247;50.944;5.382;2023-07-31T01:35:46;18.70;94.50
43651;DHT22;29247;50.944;5.382;2023-07-31T01:38:14;18.70;94.50
43651;DHT22;29247;50.944;5.382;2023-07-31T01:40:42;18.70;94.50
43651;DHT22;29247;50.944;5.382;2023-07-31T01:43:08;18.80;94.60
43651;DHT22;29247;50.944;5.382;2023-07-31T01:45:34;18.80;94.50
43651;DHT22;29247;50.944;5.382;2023-07-31T01:48:00;18.70;94.50
43651;DHT22;29247;50.944;5.382;2023-07-31T01:50:26;18.80;94.50
43651;DHT22;29247;50.944;5.382;2023-07-31T01:52:51;18.80;94.50
43651;DHT22;29247;50.944;5.382;2023-07-31T01:55:19;18.80;94.50
43651;DHT22;29247;50.944;5.382;2023-07-31T01:57:45;18.80;94.50
43651;DHT22;29247;50.944;5.382;2023-07-31T02:00:10;18.80;94.50
43651;DHT22;29247;50.944;5.382;2023-07-31T02:02:36;18.80;94.40
43651;DHT22;29247;50.944;5.382;2023-07-31T02:05:04;18.80;94.40
43651;DHT22;29247;50.944;5.382;2023-07-31T02:07:30;18.80;94.30
43651;DHT22;29247;50.944;5.382;2023-07-31T02:09:56;18.80;94.30
43651;DHT22;29247;50.944;5.382;2023-07-31T02:12:24;18.80;94.30
43651;DHT22;29247;50.944;5.382;2023-07-31T02:14:50;18.90;94.30
43651;DHT22;29247;50.944;5.382;2023-07-31T02:17:17;18.90;94.30
43651;DHT22;29247;50.944;5.382;2023-07-31T02:19:45;18.80;94.30
43651;DHT22;29247;50.944;5.382;2023-07-31T02:22:11;18.90;94.40
43651;DHT22;29247;50.944;5.382;2023-07-31T02:24:36;18.90;94.40
43651;DHT22;29247;50.944;5.382;2023-07-31T02:27:02;18.90;94.40
43651;DHT22;29247;50.944;5.382;2023-07-31T02:29:30;18.90;94.40
43651;DHT22;29247;50.944;5.382;2023-07-31T02:31:56;18.90;94.40
43651;DHT22;29247;50.944;5.382;2023-07-31T02:34:24;18.90;94.40
43651;DHT22;29247;50.944;5.382;2023-07-31T02:36:52;18.90;94.40
43651;DHT22;29247;50.944;5.382;2023-07-31T02:39:17;18.90;94.40
43651;DHT22;29247;50.944;5.382;2023-07-31T02:41:46;18.90;94.40
43651;DHT22;29247;50.944;5.382;2023-07-31T02:44:11;18.90;94.30
43651;DHT22;29247;50.944;5.382;2023-07-31T02:46:39;18.90;94.30
43651;DHT22;29247;50.944;5.382;2023-07-31T02:49:05;18.90;94.30
43651;DHT22;29247;50.944;5.382;2023-07-31T02:51:31;18.90;94.30
43651;DHT22;29247;50.944;5.382;2023-07-31T02:53:59;18.90;94.30
43651;DHT22;29247;50.944;5.382;2023-07-31T02:56:24;18.90;94.30
43651;DHT22;29247;50.944;5.382;2023-07-31T02:58:50;18.90;94.30
43651;DHT22;29247;50.944;5.382;2023-07-31T03:01:15;18.90;94.30
43651;DHT22;29247;50.944;5.382;2023-07-31T03:03:41;18.90;94.30
43651;DHT22;29247;50.944;5.382;2023-07-31T03:06:07;18.90;94.30
43651;DHT22;29247;50.944;5.382;2023-07-31T03:08:33;18.90;94.30
43651;DHT22;29247;50.944;5.382;2023-07-31T03:10:58;18.90;94.30
43651;DHT22;29247;50.944;5.382;2023-07-31T03:13:27;18.90;94.30
43651;DHT22;29247;50.944;5.382;2023-07-31T03:15:54;19.00;94.30
43651;DHT22;29247;50.944;5.382;2023-07-31T03:18:20;19.00;94.30
43651;DHT22;29247;50.944;5.382;2023-07-31T03:20:46;18.90;94.30
43651;DHT22;29247;50.944;5.382;2023-07-31T03:23:11;19.00;94.30
43651;DHT22;29247;50.944;5.382;2023-07-31T03:25:37;19.00;94.30
43651;DHT22;29247;50.944;5.382;2023-07-31T03:28:03;19.00;94.20
43651;DHT22;29247;50.944;5.382;2023-07-31T03:30:30;19.00;94.20
43651;DHT22;29247;50.944;5.382;2023-07-31T03:33:00;19.00;94.20
43651;DHT22;29247;50.944;5.382;2023-07-31T03:35:26;19.00;94.30
43651;DHT22;29247;50.944;5.382;2023-07-31T03:37:54;19.00;94.30
43651;DHT22;29247;50.944;5.382;2023-07-31T03:40:19;19.00;94.20
43651;DHT22;29247;50.944;5.382;2023-07-31T03:42:45;19.00;94.20
43651;DHT22;29247;50.944;5.382;2023-07-31T03:45:13;19.00;94.20
43651;DHT22;29247;50.944;5.382;2023-07-31T03:47:41;19.00;94.20
43651;DHT22;29247;50.944;5.382;2023-07-31T03:50:07;19.00;94.20
43651;DHT22;29247;50.944;5.382;2023-07-31T03:52:35;19.00;94.20
43651;DHT22;29247;50.944;5.382;2023-07-31T03:55:01;19.00;94.20
43651;DHT22;29247;50.944;5.382;2023-07-31T03:57:31;19.00;94.20
43651;DHT22;29247;50.944;5.382;2023-07-31T03:59:58;19.00;94.20
43651;DHT22;29247;50.944;5.382;2023-07-31T04:02:26;19.00;94.20
43651;DHT22;29247;50.944;5.382;2023-07-31T04:04:54;19.00;94.20
43651;DHT22;29247;50.944;5.382;2023-07-31T04:07:19;19.00;94.20
43651;DHT22;29247;50.944;5.382;2023-07-31T04:09:45;19.00;94.10
43651;DHT22;29247;50.944;5.382;2023-07-31T04:12:11;19.00;94.10
43651;DHT22;29247;50.944;5.382;2023-07-31T04:14:37;19.00;94.10
43651;DHT22;29247;50.944;5.382;2023-07-31T04:17:05;19.00;94.10
43651;DHT22;29247;50.944;5.382;2023-07-31T04:19:30;19.00;94.10
43651;DHT22;29247;50.944;5.382;2023-07-31T04:21:56;19.00;94.10
43651;DHT22;29247;50.944;5.382;2023-07-31T04:24:22;19.00;94.10
43651;DHT22;29247;50.944;5.382;2023-07-31T04:26:53;19.00;94.10
43651;DHT22;29247;50.944;5.382;2023-07-31T04:29:19;19.00;94.10
43651;DHT22;29247;50.944;5.382;2023-07-31T04:31:45;19.00;94.10
43651;DHT22;29247;50.944;5.382;2023-07-31T04:34:11;19.00;94.00
43651;DHT22;29247;50.944;5.382;2023-07-31T04:36:38;19.00;94.00
43651;DHT22;29247;50.944;5.382;2023-07-31T04:39:07;19.00;94.00
43651;DHT22;29247;50.944;5.382;2023-07-31T04:41:32;19.00;94.00
43651;DHT22;29247;50.944;5.382;2023-07-31T04:44:01;19.00;94.00
43651;DHT22;29247;50.944;5.382;2023-07-31T04:46:30;19.00;93.90
43651;DHT22;29247;50.944;5.382;2023-07-31T04:48:56;19.00;94.00
43651;DHT22;29247;50.944;5.382;2023-07-31T04:51:21;19.00;94.00
43651;DHT22;29247;50.944;5.382;2023-07-31T04:53:48;19.00;94.00
43651;DHT22;29247;50.944;5.382;2023-07-31T04:56:16;19.00;94.30
43651;DHT22;29247;50.944;5.382;2023-07-31T04:58:44;19.00;94.10
43651;DHT22;29247;50.944;5.382;2023-07-31T05:01:10;19.00;94.10
43651;DHT22;29247;50.944;5.382;2023-07-31T05:03:35;19.00;94.10
43651;DHT22;29247;50.944;5.382;2023-07-31T05:06:01;19.00;94.10
43651;DHT22;29247;50.944;5.382;2023-07-31T05:08:29;19.00;94.20
43651;DHT22;29247;50.944;5.382;2023-07-31T05:10:57;19.00;94.20
43651;DHT22;29247;50.944;5.382;2023-07-31T05:13:24;19.00;94.30
43651;DHT22;29247;50.944;5.382;2023-07-31T05:15:52;19.00;94.30
43651;DHT22;29247;50.944;5.382;2023-07-31T05:18:19;19.00;94.30
43651;DHT22;29247;50.944;5.382;2023-07-31T05:20:47;19.00;94.40
43651;DHT22;29247;50.944;5.382;2023-07-31T05:23:12;19.00;94.40
43651;DHT22;29247;50.944;5.382;2023-07-31T05:25:38;19.00;94.50
43651;DHT22;29247;50.944;5.382;2023-07-31T05:28:04;19.00;94.50
43651;DHT22;29247;50.944;5.382;2023-07-31T05:30:30;19.00;94.50
43651;DHT22;29247;50.944;5.382;2023-07-31T05:32:59;19.00;94.50
43651;DHT22;29247;50.944;5.382;2023-07-31T05:35:24;19.00;94.60
43651;DHT22;29247;50.944;5.382;2023-07-31T05:37:50;19.00;94.60
43651;DHT22;29247;50.944;5.382;2023-07-31T05:40:15;19.00;94.60
43651;DHT22;29247;50.944;5.382;2023-07-31T05:42:43;19.00;94.60
43651;DHT22;29247;50.944;5.382;2023-07-31T05:45:09;19.00;94.70
43651;DHT22;29247;50.944;5.382;2023-07-31T05:47:35;19.00;94.70
43651;DHT22;29247;50.944;5.382;2023-07-31T05:50:01;19.00;94.70
43651;DHT22;29247;50.944;5.382;2023-07-31T05:52:26;18.90;94.60
43651;DHT22;29247;50.944;5.382;2023-07-31T05:54:54;19.00;94.60
43651;DHT22;29247;50.944;5.382;2023-07-31T05:57:20;19.00;94.70
43651;DHT22;29247;50.944;5.382;2023-07-31T05:59:45;19.00;94.70
43651;DHT22;29247;50.944;5.382;2023-07-31T06:02:11;19.00;94.70
43651;DHT22;29247;50.944;5.382;2023-07-31T06:04:40;18.90;94.70
43651;DHT22;29247;50.944;5.382;2023-07-31T06:07:10;18.90;94.70
43651;DHT22;29247;50.944;5.382;2023-07-31T06:09:36;18.90;94.70
43651;DHT22;29247;50.944;5.382;2023-07-31T06:12:02;18.90;94.70
43651;DHT22;29247;50.944;5.382;2023-07-31T06:14:27;18.90;94.70
43651;DHT22;29247;50.944;5.382;2023-07-31T06:16:55;18.90;94.70
43651;DHT22;29247;50.944;5.382;2023-07-31T06:19:21;18.90;94.70
43651;DHT22;29247;50.944;5.382;2023-07-31T06:21:46;18.90;94.70
43651;DHT22;29247;50.944;5.382;2023-07-31T06:24:14;18.90;94.70
43651;DHT22;29247;50.944;5.382;2023-07-31T06:26:45;18.90;94.70
43651;DHT22;29247;50.944;5.382;2023-07-31T06:29:11;18.90;94.70
43651;DHT22;29247;50.944;5.382;2023-07-31T06:31:37;18.90;94.70
43651;DHT22;29247;50.944;5.382;2023-07-31T06:34:02;18.90;94.70
43651;DHT22;29247;50.944;5.382;2023-07-31T06:36:30;18.90;94.70
43651;DHT22;29247;50.944;5.382;2023-07-31T06:38:58;18.90;94.70
43651;DHT22;29247;50.944;5.382;2023-07-31T06:41:24;18.90;94.70
43651;DHT22;29247;50.944;5.382;2023-07-31T06:43:49;18.90;94.70
43651;DHT22;29247;50.944;5.382;2023-07-31T06:46:17;18.80;94.70
43651;DHT22;29247;50.944;5.382;2023-07-31T06:48:43;18.90;94.80
43651;DHT22;29247;50.944;5.382;2023-07-31T06:51:09;18.90;94.80
43651;DHT22;29247;50.944;5.382;2023-07-31T06:53:37;18.80;94.80
43651;DHT22;29247;50.944;5.382;2023-07-31T06:56:03;18.90;94.90
43651;DHT22;29247;50.944;5.382;2023-07-31T06:58:31;18.90;94.90
43651;DHT22;29247;50.944;5.382;2023-07-31T07:01:01;18.90;95.00
43651;DHT22;29247;50.944;5.382;2023-07-31T07:03:27;18.90;95.00
43651;DHT22;29247;50.944;5.382;2023-07-31T07:05:55;18.90;94.90
43651;DHT22;29247;50.944;5.382;2023-07-31T07:08:20;18.90;94.90
43651;DHT22;29247;50.944;5.382;2023-07-31T07:10:46;18.90;95.00
43651;DHT22;29247;50.944;5.382;2023-07-31T07:13:12;18.90;95.10
43651;DHT22;29247;50.944;5.382;2023-07-31T07:15:40;18.90;95.20
43651;DHT22;29247;50.944;5.382;2023-07-31T07:18:08;18.90;95.20
43651;DHT22;29247;50.944;5.382;2023-07-31T07:20:36;18.90;95.20
43651;DHT22;29247;50.944;5.382;2023-07-31T07:23:01;18.90;95.10
43651;DHT22;29247;50.944;5.382;2023-07-31T07:25:29;18.90;95.10
43651;DHT22;29247;50.944;5.382;2023-07-31T07:27:55;18.90;95.20
43651;DHT22;29247;50.944;5.382;2023-07-31T07:30:21;18.90;95.30
43651;DHT22;29247;50.944;5.382;2023-07-31T07:32:46;19.00;95.30
43651;DHT22;29247;50.944;5.382;2023-07-31T07:35:14;19.00;95.40
43651;DHT22;29247;50.944;5.382;2023-07-31T07:37:42;19.10;95.50
43651;DHT22;29247;50.944;5.382;2023-07-31T07:40:08;19.10;95.40
43651;DHT22;29247;50.944;5.382;2023-07-31T07:42:34;19.10;95.30
43651;DHT22;29247;50.944;5.382;2023-07-31T07:45:02;19.10;95.20
43651;DHT22;29247;50.944;5.382;2023-07-31T07:47:28;19.10;95.10
43651;DHT22;29247;50.944;5.382;2023-07-31T07:49:56;19.10;95.10
43651;DHT22;29247;50.944;5.382;2023-07-31T07:52:24;19.10;95.10
43651;DHT22;29247;50.944;5.382;2023-07-31T07:54:50;19.10;95.10
43651;DHT22;29247;50.944;5.382;2023-07-31T07:57:19;19.10;95.00
43651;DHT22;29247;50.944;5.382;2023-07-31T07:59:44;19.10;95.00
43651;DHT22;29247;50.944;5.382;2023-07-31T08:02:12;19.00;94.90
43651;DHT22;29247;50.944;5.382;2023-07-31T08:04:40;19.10;95.00
43651;DHT22;29247;50.944;5.382;2023-07-31T08:07:11;19.10;95.00
43651;DHT22;29247;50.944;5.382;2023-07-31T08:09:40;19.10;95.00
43651;DHT22;29247;50.944;5.382;2023-07-31T08:12:06;19.10;95.00
43651;DHT22;29247;50.944;5.382;2023-07-31T08:14:32;19.10;95.00
43651;DHT22;29247;50.944;5.382;2023-07-31T08:16:57;19.10;95.00
43651;DHT22;29247;50.944;5.382;2023-07-31T08:19:25;19.10;95.00
43651;DHT22;29247;50.944;5.382;2023-07-31T08:21:51;19.10;94.90
43651;DHT22;29247;50.944;5.382;2023-07-31T08:24:19;19.10;94.90
43651;DHT22;29247;50.944;5.382;2023-07-31T08:26:45;19.00;94.90
43651;DHT22;29247;50.944;5.382;2023-07-31T08:29:11;19.00;94.90
43651;DHT22;29247;50.944;5.382;2023-07-31T08:31:41;19.00;94.80
43651;DHT22;29247;50.944;5.382;2023-07-31T08:34:09;19.00;94.80
43651;DHT22;29247;50.944;5.382;2023-07-31T08:36:37;19.10;94.80
43651;DHT22;29247;50.944;5.382;2023-07-31T08:39:02;19.10;94.70
43651;DHT22;29247;50.944;5.382;2023-07-31T08:41:29;19.10;94.80
43651;DHT22;29247;50.944;5.382;2023-07-31T08:43:59;19.10;94.90
43651;DHT22;29247;50.944;5.382;2023-07-31T08:46:26;19.10;94.90
43651;DHT22;29247;50.944;5.382;2023-07-31T08:48:52;19.10;94.90
43651;DHT22;29247;50.944;5.382;2023-07-31T08:51:20;19.10;94.90
43651;DHT22;29247;50.944;5.382;2023-07-31T08:53:46;19.10;94.90
43651;DHT22;29247;50.944;5.382;2023-07-31T08:56:13;19.10;94.90
43651;DHT22;29247;50.944;5.382;2023-07-31T08:58:39;19.10;94.80
43651;DHT22;29247;50.944;5.382;2023-07-31T09:01:07;19.10;94.80
43651;DHT22;29247;50.944;5.382;2023-07-31T09:03:34;19.20;94.80
43651;DHT22;29247;50.944;5.382;2023-07-31T09:06:03;19.20;94.90
43651;DHT22;29247;50.944;5.382;2023-07-31T09:08:31;19.20;94.90
43651;DHT22;29247;50.944;5.382;2023-07-31T09:11:01;19.30;94.90
43651;DHT22;29247;50.944;5.382;2023-07-31T09:13:29;19.30;94.80
43651;DHT22;29247;50.944;5.382;2023-07-31T09:15:58;19.30;94.90
43651;DHT22;29247;50.944;5.382;2023-07-31T09:18:24;19.30;95.00
43651;DHT22;29247;50.944;5.382;2023-07-31T09:21:06;19.30;95.10
43651;DHT22;29247;50.944;5.382;2023-07-31T09:23:45;19.30;95.10
43651;DHT22;29247;50.944;5.382;2023-07-31T09:26:11;19.40;95.10
43651;DHT22;29247;50.944;5.382;2023-07-31T09:28:37;19.40;95.20
43651;DHT22;29247;50.944;5.382;2023-07-31T09:31:05;19.50;95.20
43651;DHT22;29247;50.944;5.382;2023-07-31T09:33:30;19.50;94.90
43651;DHT22;29247;50.944;5.382;2023-07-31T09:36:01;19.50;94.90
43651;DHT22;29247;50.944;5.382;2023-07-31T09:38:30;19.50;94.70
43651;DHT22;29247;50.944;5.382;2023-07-31T09:40:58;19.50;94.60
43651;DHT22;29247;50.944;5.382;2023-07-31T09:43:24;19.50;94.60
43651;DHT22;29247;50.944;5.382;2023-07-31T09:45:55;19.50;94.60
43651;DHT22;29247;50.944;5.382;2023-07-31T09:48:23;19.50;94.60
43651;DHT22;29247;50.944;5.382;2023-07-31T09:50:54;19.50;94.50
43651;DHT22;29247;50.944;5.382;2023-07-31T09:53:28;19.50;94.60
43651;DHT22;29247;50.944;5.382;2023-07-31T09:55:54;19.50;94.60
43651;DHT22;29247;50.944;5.382;2023-07-31T09:58:23;19.50;94.60
43651;DHT22;29247;50.944;5.382;2023-07-31T10:00:49;19.50;94.50
43651;DHT22;29247;50.944;5.382;2023-07-31T10:03:15;19.50;94.40
43651;DHT22;29247;50.944;5.382;2023-07-31T10:05:47;19.60;94.40
43651;DHT22;29247;50.944;5.382;2023-07-31T10:08:20;19.60;94.40
43651;DHT22;29247;50.944;5.382;2023-07-31T10:10:47;19.60;94.40
43651;DHT22;29247;50.944;5.382;2023-07-31T10:13:15;19.60;94.30
43651;DHT22;29247;50.944;5.382;2023-07-31T10:15:42;19.60;94.30
43651;DHT22;29247;50.944;5.382;2023-07-31T10:18:10;19.60;94.30
43651;DHT22;29247;50.944;5.382;2023-07-31T10:20:37;19.70;94.30
43651;DHT22;29247;50.944;5.382;2023-07-31T10:23:03;19.70;94.20
43651;DHT22;29247;50.944;5.382;2023-07-31T10:25:32;19.70;94.20
43651;DHT22;29247;50.944;5.382;2023-07-31T10:27:58;19.70;94.20
43651;DHT22;29247;50.944;5.382;2023-07-31T10:30:27;19.70;94.20
43651;DHT22;29247;50.944;5.382;2023-07-31T10:32:53;19.80;94.20
43651;DHT22;29247;50.944;5.382;2023-07-31T10:35:20;19.80;94.10
43651;DHT22;29247;50.944;5.382;2023-07-31T10:37:50;19.80;94.10
43651;DHT22;29247;50.944;5.382;2023-07-31T10:40:24;19.80;94.00
43651;DHT22;29247;50.944;5.382;2023-07-31T10:42:55;19.80;94.30
43651;DHT22;29247;50.944;5.382;2023-07-31T10:45:39;19.90;93.90
43651;DHT22;29247;50.944;5.382;2023-07-31T10:48:15;19.90;93.90
43651;DHT22;29247;50.944;5.382;2023-07-31T10:50:52;19.90;94.00
43651;DHT22;29247;50.944;5.382;2023-07-31T10:53:33;20.00;94.10
43651;DHT22;29247;50.944;5.382;2023-07-31T10:58:26;20.10;94.10
43651;DHT22;29247;50.944;5.382;2023-07-31T11:00:55;20.10;94.00
43651;DHT22;29247;50.944;5.382;2023-07-31T11:03:25;20.20;94.00
43651;DHT22;29247;50.944;5.382;2023-07-31T11:06:03;20.20;93.90
43651;DHT22;29247;50.944;5.382;2023-07-31T11:08:31;20.20;93.90
43651;DHT22;29247;50.944;5.382;2023-07-31T11:13:33;20.30;93.70
43651;DHT22;29247;50.944;5.382;2023-07-31T11:16:00;20.30;93.70
43651;DHT22;29247;50.944;5.382;2023-07-31T11:18:26;20.30;93.70
43651;DHT22;29247;50.944;5.382;2023-07-31T11:20:55;20.30;93.70
43651;DHT22;29247;50.944;5.382;2023-07-31T11:23:22;20.30;93.80
43651;DHT22;29247;50.944;5.382;2023-07-31T11:25:47;20.30;93.80
43651;DHT22;29247;50.944;5.382;2023-07-31T11:28:15;20.40;93.80
43651;DHT22;29247;50.944;5.382;2023-07-31T11:30:45;20.40;93.80
43651;DHT22;29247;50.944;5.382;2023-07-31T11:33:12;20.40;93.80
43651;DHT22;29247;50.944;5.382;2023-07-31T11:35:46;20.50;93.90
43651;DHT22;29247;50.944;5.382;2023-07-31T11:38:24;20.60;93.90
43651;DHT22;29247;50.944;5.382;2023-07-31T11:40:54;20.60;93.80
43651;DHT22;29247;50.944;5.382;2023-07-31T11:43:23;20.70;93.70
43651;DHT22;29247;50.944;5.382;2023-07-31T11:45:56;20.80;93.40
43651;DHT22;29247;50.944;5.382;2023-07-31T11:48:23;20.80;93.20
43651;DHT22;29247;50.944;5.382;2023-07-31T11:50:51;20.80;93.10
43651;DHT22;29247;50.944;5.382;2023-07-31T11:53:20;20.80;93.00
43651;DHT22;29247;50.944;5.382;2023-07-31T11:55:48;20.80;92.90
43651;DHT22;29247;50.944;5.382;2023-07-31T11:58:16;20.80;93.00
43651;DHT22;29247;50.944;5.382;2023-07-31T12:00:43;20.90;93.20
43651;DHT22;29247;50.944;5.382;2023-07-31T12:03:12;21.00;93.20
43651;DHT22;29247;50.944;5.382;2023-07-31T12:05:38;21.10;93.00
43651;DHT22;29247;50.944;5.382;2023-07-31T12:08:10;21.10;92.70
43651;DHT22;29247;50.944;5.382;2023-07-31T12:10:37;21.20;92.50
43651;DHT22;29247;50.944;5.382;2023-07-31T12:13:06;21.20;92.30
43651;DHT22;29247;50.944;5.382;2023-07-31T12:18:03;21.20;91.90
43651;DHT22;29247;50.944;5.382;2023-07-31T12:20:30;21.20;91.80
43651;DHT22;29247;50.944;5.382;2023-07-31T12:22:56;21.20;91.70
43651;DHT22;29247;50.944;5.382;2023-07-31T12:25:35;21.20;91.60
43651;DHT22;29247;50.944;5.382;2023-07-31T12:28:05;21.20;91.70
43651;DHT22;29247;50.944;5.382;2023-07-31T12:30:34;21.20;91.60
43651;DHT22;29247;50.944;5.382;2023-07-31T12:33:15;21.20;91.50
43651;DHT22;29247;50.944;5.382;2023-07-31T12:35:44;21.20;91.60
43651;DHT22;29247;50.944;5.382;2023-07-31T12:38:11;21.20;91.70
43651;DHT22;29247;50.944;5.382;2023-07-31T12:40:39;21.20;91.60
43651;DHT22;29247;50.944;5.382;2023-07-31T12:43:05;21.20;91.70
43651;DHT22;29247;50.944;5.382;2023-07-31T12:45:31;21.30;92.00
43651;DHT22;29247;50.944;5.382;2023-07-31T12:47:58;21.50;92.40
43651;DHT22;29247;50.944;5.382;2023-07-31T12:50:24;21.60;92.10
43651;DHT22;29247;50.944;5.382;2023-07-31T12:52:49;21.70;91.70
43651;DHT22;29247;50.944;5.382;2023-07-31T12:55:15;21.70;91.40
43651;DHT22;29247;50.944;5.382;2023-07-31T12:57:41;21.70;91.00
43651;DHT22;29247;50.944;5.382;2023-07-31T13:00:09;21.70;90.70
43651;DHT22;29247;50.944;5.382;2023-07-31T13:02:34;21.60;90.50
43651;DHT22;29247;50.944;5.382;2023-07-31T13:05:00;21.60;90.50
43651;DHT22;29247;50.944;5.382;2023-07-31T13:07:26;21.50;90.50
43651;DHT22;29247;50.944;5.382;2023-07-31T13:09:52;21.40;90.40
43651;DHT22;29247;50.944;5.382;2023-07-31T13:12:18;21.40;90.40
43651;DHT22;29247;50.944;5.382;2023-07-31T13:14:43;21.40;90.40
43651;DHT22;29247;50.944;5.382;2023-07-31T13:17:11;21.30;90.40
43651;DHT22;29247;50.944;5.382;2023-07-31T13:19:40;21.30;90.40
43651;DHT22;29247;50.944;5.382;2023-07-31T13:22:05;21.20;90.50
43651;DHT22;29247;50.944;5.382;2023-07-31T13:24:31;21.20;90.50
43651;DHT22;29247;50.944;5.382;2023-07-31T13:27:01;21.20;90.50
43651;DHT22;29247;50.944;5.382;2023-07-31T13:29:27;21.10;90.60
43651;DHT22;29247;50.944;5.382;2023-07-31T13:31:53;21.10;90.60
43651;DHT22;29247;50.944;5.382;2023-07-31T13:34:18;21.10;90.70
43651;DHT22;29247;50.944;5.382;2023-07-31T13:36:44;21.10;90.70
43651;DHT22;29247;50.944;5.382;2023-07-31T13:39:15;21.00;90.70
43651;DHT22;29247;50.944;5.382;2023-07-31T13:41:40;21.00;90.70
43651;DHT22;29247;50.944;5.382;2023-07-31T13:44:06;21.00;90.80
43651;DHT22;29247;50.944;5.382;2023-07-31T13:46:32;21.00;90.90
43651;DHT22;29247;50.944;5.382;2023-07-31T13:48:59;21.00;90.90
43651;DHT22;29247;50.944;5.382;2023-07-31T13:51:25;21.00;90.80
43651;DHT22;29247;50.944;5.382;2023-07-31T13:53:56;21.00;90.80
43651;DHT22;29247;50.944;5.382;2023-07-31T13:56:23;21.00;90.70
43651;DHT22;29247;50.944;5.382;2023-07-31T13:58:52;21.00;90.70
43651;DHT22;29247;50.944;5.382;2023-07-31T14:01:20;21.00;90.70
43651;DHT22;29247;50.944;5.382;2023-07-31T14:03:45;21.00;90.70
43651;DHT22;29247;50.944;5.382;2023-07-31T14:06:11;21.00;90.70
43651;DHT22;29247;50.944;5.382;2023-07-31T14:08:39;21.00;90.70
43651;DHT22;29247;50.944;5.382;2023-07-31T14:11:07;21.00;90.60
43651;DHT22;29247;50.944;5.382;2023-07-31T14:13:35;21.00;90.60
43651;DHT22;29247;50.944;5.382;2023-07-31T14:16:00;21.00;90.60
43651;DHT22;29247;50.944;5.382;2023-07-31T14:18:28;21.00;90.60
43651;DHT22;29247;50.944;5.382;2023-07-31T14:20:54;20.90;90.70
43651;DHT22;29247;50.944;5.382;2023-07-31T14:23:25;20.90;90.70
43651;DHT22;29247;50.944;5.382;2023-07-31T14:25:55;20.90;90.70
43651;DHT22;29247;50.944;5.382;2023-07-31T14:28:21;20.90;90.80
43651;DHT22;29247;50.944;5.382;2023-07-31T14:30:46;20.90;90.80
43651;DHT22;29247;50.944;5.382;2023-07-31T14:33:12;20.90;90.80
43651;DHT22;29247;50.944;5.382;2023-07-31T14:35:40;20.90;90.90
43651;DHT22;29247;50.944;5.382;2023-07-31T14:38:08;20.90;91.00
43651;DHT22;29247;50.944;5.382;2023-07-31T14:40:34;20.80;91.10
43651;DHT22;29247;50.944;5.382;2023-07-31T14:42:59;20.80;91.30
43651;DHT22;29247;50.944;5.382;2023-07-31T14:45:25;20.80;91.40
43651;DHT22;29247;50.944;5.382;2023-07-31T14:47:53;20.80;91.40
43651;DHT22;29247;50.944;5.382;2023-07-31T14:50:21;20.80;91.60
43651;DHT22;29247;50.944;5.382;2023-07-31T14:52:48;20.70;91.70
43651;DHT22;29247;50.944;5.382;2023-07-31T14:55:14;20.70;91.90
43651;DHT22;29247;50.944;5.382;2023-07-31T14:57:42;20.70;92.00
43651;DHT22;29247;50.944;5.382;2023-07-31T15:00:08;20.70;92.10
43651;DHT22;29247;50.944;5.382;2023-07-31T15:02:38;20.70;92.20
43651;DHT22;29247;50.944;5.382;2023-07-31T15:05:07;20.70;92.20
43651;DHT22;29247;50.944;5.382;2023-07-31T15:07:35;20.70;92.30
43651;DHT22;29247;50.944;5.382;2023-07-31T15:10:02;20.70;92.30
43651;DHT22;29247;50.944;5.382;2023-07-31T15:12:28;20.70;92.30
43651;DHT22;29247;50.944;5.382;2023-07-31T15:14:54;20.70;92.40
43651;DHT22;29247;50.944;5.382;2023-07-31T15:17:20;20.60;92.50
43651;DHT22;29247;50.944;5.382;2023-07-31T15:19:45;20.60;92.60
43651;DHT22;29247;50.944;5.382;2023-07-31T15:22:11;20.60;92.60
43651;DHT22;29247;50.944;5.382;2023-07-31T15:24:37;20.60;92.70
43651;DHT22;29247;50.944;5.382;2023-07-31T15:27:02;20.60;92.90
43651;DHT22;29247;50.944;5.382;2023-07-31T15:29:29;20.50;92.90
43651;DHT22;29247;50.944;5.382;2023-07-31T15:31:55;20.50;92.90
43651;DHT22;29247;50.944;5.382;2023-07-31T15:34:27;20.50;92.90
43651;DHT22;29247;50.944;5.382;2023-07-31T15:36:52;20.50;93.00
43651;DHT22;29247;50.944;5.382;2023-07-31T15:39:18;20.50;93.00
43651;DHT22;29247;50.944;5.382;2023-07-31T15:41:47;20.50;93.10
43651;DHT22;29247;50.944;5.382;2023-07-31T15:44:12;20.50;93.10